Accueil
METAR-TAF:

METAR-TAF

Aéroports :

Duplin County Airport

Kenansville, Caroline du Nord, États-Unis

latitude: 35-00-00N, longitude: 077-58-54W, altitude: 42 m

Observation

Le bulletin a été fait il y a 33 minutes, à 21:15 UTC
Vent 5 kt de est/sud-est
Température 30°C
Humidité 70%
Pression 1015 hPa
Visibilité: 16.1 km
Nuages épars à une hauteur de 3500 ft
Nuages épars à une hauteur de 4300 ft

METAR: KDPL 122115Z AUTO 12005KT 10SM SCT035 SCT043 30/24 A2996 RMK AO2

Heure: 17:48 (21:48 UTC)


TAF: absent

Observations et prévisions météorologiques de plus de 4000 aéroports (messages METAR et TAF).

Les stations disponibles sont représentées par des disques jaunes et rouges sur la carte.

Passer la souris dessus pour voir le nom de la station.

Cliquer dessus pour voir les observations et prévisions météorologiques.

Pour changer de carte: cliquez sur les boutons verts avec une croix noire pour zoomer, sur le bouton vert avec un tiret pour effectuer un zoom arrière, ou sur les flèches vertes pour les cartes adjacentes.


METAR-TAF: